»·PEaware :: N129HF KSBP-KSBP

N129HF :: KSBP-KSBP

FLIGHT INFORMATION

Flight Status: Arrived
Operator: Privately registered:
United States
More flights under this callsign
Pilot: Jerrivel R. (26020)
Aircraft: CESSNA 172 SKYHAWK
(C172)
More flights by this aircraft type
Origin: KSBP San Luis Co Regl
United States
Destination: KSBP San Luis Co Regl
United States
More flights between these airports :: More routes between these airports
Route:
File this flight plan on PilotEdge
Remarks:
Altitude:
(Current/Filed)
1,200ft
Speed:
(Current/Filed)
90kts
Departed: 13-Jan-21 12:23 PM
Arrived: 13-Jan-21 12:37 PM
Distance/Time
Traveled:
0nm/0:14
Distance/Time
To Go:
Arrived

Flight Plot

Page will automatically refresh every two minutes.


Map Options




Map Legend


Flown Route
Filed Route
Departure Airport
Arrival Airport
Navaid (VOR, NDB)
Fix

Horizontal Profiles

Position Reports

Time Latitude Longitude Heading Altitude Ground
Speed
13-Jan-21 11:55 35.238390 -120.647670 0 215ft 0kts
13-Jan-21 11:56 35.238390 -120.647670 0 215ft 0kts
13-Jan-21 11:57 35.238390 -120.647670 0 215ft 0kts
13-Jan-21 11:58 35.238390 -120.647670 0 215ft 0kts
13-Jan-21 11:59 35.238231 -120.647670 0 215ft 2kts
13-Jan-21 12:00 35.238217 -120.647670 0 215ft 0kts
13-Jan-21 12:01 35.238217 -120.647670 0 215ft 0kts
13-Jan-21 12:02 35.238219 -120.647670 0 215ft 0kts
13-Jan-21 12:03 35.238221 -120.647670 0 215ft 0kts
13-Jan-21 12:04 35.238225 -120.647670 0 215ft 0kts
13-Jan-21 12:05 35.238228 -120.647670 0 215ft 0kts
13-Jan-21 12:06 35.238232 -120.647670 0 215ft 0kts
13-Jan-21 12:07 35.238077 -120.647617 199 215ft 5kts
13-Jan-21 12:08 35.237461 -120.647507 99 215ft 2kts
13-Jan-21 12:08 35.237447 -120.644395 91 215ft 12kts
13-Jan-21 12:10 35.237440 -120.642168 89 215ft 0kts
13-Jan-21 12:11 35.237705 -120.642830 33 215ft 7kts
13-Jan-21 12:12 35.237464 -120.639435 125 215ft 15kts
13-Jan-21 12:12 35.236097 -120.637049 293 215ft 0kts
13-Jan-21 12:14 35.236098 -120.637052 293 215ft 0kts
13-Jan-21 12:14 35.235012 -120.635125 124 215ft 15kts
13-Jan-21 12:15 35.233156 -120.631886 290 215ft 0kts
13-Jan-21 12:16 35.233157 -120.631889 290 215ft 0kts
13-Jan-21 12:17 35.233158 -120.631892 290 215ft 0kts
13-Jan-21 12:18 35.233159 -120.631898 290 215ft 0kts
13-Jan-21 12:19 35.233161 -120.631903 290 215ft 0kts
13-Jan-21 12:20 35.233162 -120.631907 290 215ft 0kts
13-Jan-21 12:21 35.233113 -120.632412 193 215ft 0kts
13-Jan-21 12:22 35.234567 -120.636148 301 255ft 58kts
13-Jan-21 12:23 35.242453 -120.656708 232 1162ft 86kts
13-Jan-21 12:24 35.222461 -120.642230 125 1219ft 100kts
13-Jan-21 12:25 35.219970 -120.618286 13 917ft 72kts
13-Jan-21 12:26 35.231868 -120.631479 304 301ft 57kts
13-Jan-21 12:27 35.239507 -120.645380 300 445ft 67kts
13-Jan-21 12:28 35.238827 -120.664854 185 1160ft 104kts
13-Jan-21 12:29 35.221718 -120.638127 118 1133ft 97kts
13-Jan-21 12:30 35.224331 -120.618071 318 639ft 60kts
13-Jan-21 12:31 35.233719 -120.634647 304 230ft 49kts
13-Jan-21 12:32 35.242800 -120.649808 306 704ft 73kts
13-Jan-21 12:33 35.232394 -120.657889 130 1191ft 99kts
13-Jan-21 12:34 35.216653 -120.630914 114 976ft 88kts
13-Jan-21 12:35 35.228118 -120.625007 305 437ft 58kts
13-Jan-21 12:36 35.235662 -120.638070 304 215ft 27kts
13-Jan-21 12:37 35.237780 -120.642726 245 215ft 0kts
13-Jan-21 12:38 35.237450 -120.644349 270 215ft 15kts
13-Jan-21 12:39 35.238326 -120.646138 0 215ft 0kts
13-Jan-21 12:40 35.238326 -120.646138 0 215ft 0kts
13-Jan-21 12:41 35.238326 -120.646138 0 215ft 0kts
13-Jan-21 12:42 35.238326 -120.646138 0 215ft 0kts
13-Jan-21 12:43 35.238326 -120.646138 0 215ft 0kts
13-Jan-21 12:44 35.238326 -120.646138 0 215ft 0kts
13-Jan-21 12:45 35.238326 -120.646138 0 215ft 0kts
13-Jan-21 12:46 35.238326 -120.646138 0 215ft 0kts
13-Jan-21 12:47 35.238326 -120.646138 0 215ft 0kts
13-Jan-21 12:48 35.238326 -120.646138 0 215ft 0kts
13-Jan-21 12:49 35.238326 -120.646138 0 215ft 0kts
13-Jan-21 12:50 35.238326 -120.646138 0 215ft 0kts

Navigation Log

Ident Type
Flight plan parsing failed, navigation log unavailable